LRTC

Details ICAO LRTC (TCE)
Name CATALOI
Region Romania
Timezone Europe/Bucharest (UTC+3.0)
Plans Departing 15
Arriving 9
Stats Elevation 200 ft / 61 m (AMSL)
Location 45.062486° 28.714312°
Runways 1
Magnetic Variation 6.136° E
Sunrise 2018-05-25 02:27:54 UTC / 2018-05-25 05:27:54 Local
Sunset 2018-05-25 17:39:07 UTC / 2018-05-25 20:39:07 Local
Advertisement - Login to hide

Runways

ID Width Length Bearing (true) Bearing (mag) Surface Threshold Offset Overrun Length
16 98 ft / 30 m 6,522 ft / 1,988 m 167.36° 161.22° Concrete 0 ft / 0 m 0 ft / 0 m
34 98 ft / 30 m 6,522 ft / 1,988 m 347.36° 341.22° Concrete 0 ft / 0 m 0 ft / 0 m

Map

Weather


0- 5 10 15 20 25 30 35+ Temperature / ° C

Clouds and Precipitation
Forecast for 2018-05-25 06:00 UTC. Updated 3 minutes ago

Ground ~20,000 ft ~40,000 ft Winds

METAR

LRTC 250500Z 35004KT 290V030 CAVOK 21/18 Q1014

TAF

Not found

Frequencies

Tower 120.30 MHz TULCEA TWR
Approach 120.30 MHz TULCEA APP
Warning: Do not use this data for real-world aviation or navigation. No guarantee of current accuracy is given.